sensor_id;sensor_type;location;lat;lon;timestamp;temperature;humidity
20594;DHT22;10455;48.732;10.266;2023-07-13T00:01:43;17.50;99.90
20594;DHT22;10455;48.732;10.266;2023-07-13T00:06:47;17.60;99.90
20594;DHT22;10455;48.732;10.266;2023-07-13T00:11:54;17.60;99.90
20594;DHT22;10455;48.732;10.266;2023-07-13T00:16:56;17.40;99.90
20594;DHT22;10455;48.732;10.266;2023-07-13T00:22:00;17.40;99.90
20594;DHT22;10455;48.732;10.266;2023-07-13T00:27:04;17.10;99.90
20594;DHT22;10455;48.732;10.266;2023-07-13T00:32:07;16.80;99.90
20594;DHT22;10455;48.732;10.266;2023-07-13T00:37:11;16.70;99.90
20594;DHT22;10455;48.732;10.266;2023-07-13T00:42:15;16.70;99.90
20594;DHT22;10455;48.732;10.266;2023-07-13T00:47:16;16.70;99.90
20594;DHT22;10455;48.732;10.266;2023-07-13T00:52:18;16.40;99.90
20594;DHT22;10455;48.732;10.266;2023-07-13T00:57:22;16.20;99.90
20594;DHT22;10455;48.732;10.266;2023-07-13T01:02:24;16.30;99.90
20594;DHT22;10455;48.732;10.266;2023-07-13T01:07:26;16.40;99.90
20594;DHT22;10455;48.732;10.266;2023-07-13T01:12:30;16.30;99.90
20594;DHT22;10455;48.732;10.266;2023-07-13T01:17:35;16.30;99.90
20594;DHT22;10455;48.732;10.266;2023-07-13T01:22:38;16.20;99.90
20594;DHT22;10455;48.732;10.266;2023-07-13T01:27:40;16.10;99.90
20594;DHT22;10455;48.732;10.266;2023-07-13T01:32:42;15.80;99.90
20594;DHT22;10455;48.732;10.266;2023-07-13T01:37:45;15.60;99.90
20594;DHT22;10455;48.732;10.266;2023-07-13T01:42:47;15.50;99.90
20594;DHT22;10455;48.732;10.266;2023-07-13T01:47:49;15.40;99.90
20594;DHT22;10455;48.732;10.266;2023-07-13T01:52:52;15.30;99.90
20594;DHT22;10455;48.732;10.266;2023-07-13T01:57:54;15.40;99.90
20594;DHT22;10455;48.732;10.266;2023-07-13T02:02:56;15.40;99.90
20594;DHT22;10455;48.732;10.266;2023-07-13T02:08:00;15.40;99.90
20594;DHT22;10455;48.732;10.266;2023-07-13T02:13:03;15.30;99.90
20594;DHT22;10455;48.732;10.266;2023-07-13T02:18:05;15.30;99.90
20594;DHT22;10455;48.732;10.266;2023-07-13T02:23:08;15.20;99.90
20594;DHT22;10455;48.732;10.266;2023-07-13T02:28:10;15.30;99.90
20594;DHT22;10455;48.732;10.266;2023-07-13T02:33:12;15.20;99.90
20594;DHT22;10455;48.732;10.266;2023-07-13T02:38:15;15.30;99.90
20594;DHT22;10455;48.732;10.266;2023-07-13T02:43:17;15.30;99.90
20594;DHT22;10455;48.732;10.266;2023-07-13T02:48:19;15.30;99.90
20594;DHT22;10455;48.732;10.266;2023-07-13T02:53:22;15.20;99.90
20594;DHT22;10455;48.732;10.266;2023-07-13T02:58:24;15.20;99.90
20594;DHT22;10455;48.732;10.266;2023-07-13T03:03:27;15.30;99.90
20594;DHT22;10455;48.732;10.266;2023-07-13T03:08:30;15.40;99.90
20594;DHT22;10455;48.732;10.266;2023-07-13T03:13:32;15.20;99.90
20594;DHT22;10455;48.732;10.266;2023-07-13T03:18:35;14.90;99.90
20594;DHT22;10455;48.732;10.266;2023-07-13T03:23:39;14.60;99.90
20594;DHT22;10455;48.732;10.266;2023-07-13T03:28:41;14.40;99.90
20594;DHT22;10455;48.732;10.266;2023-07-13T03:33:43;14.40;99.90
20594;DHT22;10455;48.732;10.266;2023-07-13T03:38:47;14.30;99.90
20594;DHT22;10455;48.732;10.266;2023-07-13T03:43:49;14.20;99.90
20594;DHT22;10455;48.732;10.266;2023-07-13T03:48:51;14.10;99.90
20594;DHT22;10455;48.732;10.266;2023-07-13T03:53:54;14.10;99.90
20594;DHT22;10455;48.732;10.266;2023-07-13T03:58:56;14.00;99.90
20594;DHT22;10455;48.732;10.266;2023-07-13T04:03:58;14.10;99.90
20594;DHT22;10455;48.732;10.266;2023-07-13T04:09:03;14.30;99.90
20594;DHT22;10455;48.732;10.266;2023-07-13T04:14:06;14.50;99.90
20594;DHT22;10455;48.732;10.266;2023-07-13T04:19:08;14.70;99.90
20594;DHT22;10455;48.732;10.266;2023-07-13T04:24:12;14.90;99.90
20594;DHT22;10455;48.732;10.266;2023-07-13T04:29:13;15.30;99.90
20594;DHT22;10455;48.732;10.266;2023-07-13T04:34:15;15.80;99.90
20594;DHT22;10455;48.732;10.266;2023-07-13T04:39:19;16.80;99.90
20594;DHT22;10455;48.732;10.266;2023-07-13T04:44:21;17.20;99.90
20594;DHT22;10455;48.732;10.266;2023-07-13T04:49:23;17.60;99.90
20594;DHT22;10455;48.732;10.266;2023-07-13T04:54:27;17.70;99.90
20594;DHT22;10455;48.732;10.266;2023-07-13T04:59:28;17.80;99.90
20594;DHT22;10455;48.732;10.266;2023-07-13T05:04:30;18.10;99.90
20594;DHT22;10455;48.732;10.266;2023-07-13T05:09:34;18.70;99.90
20594;DHT22;10455;48.732;10.266;2023-07-13T05:14:36;19.50;99.90
20594;DHT22;10455;48.732;10.266;2023-07-13T05:19:37;20.10;99.90
20594;DHT22;10455;48.732;10.266;2023-07-13T05:24:41;20.00;99.90
20594;DHT22;10455;48.732;10.266;2023-07-13T05:29:43;19.40;99.90
20594;DHT22;10455;48.732;10.266;2023-07-13T05:34:45;19.70;99.90
20594;DHT22;10455;48.732;10.266;2023-07-13T05:39:48;19.50;99.90
20594;DHT22;10455;48.732;10.266;2023-07-13T05:44:50;19.70;99.90
20594;DHT22;10455;48.732;10.266;2023-07-13T05:49:52;19.80;99.90
20594;DHT22;10455;48.732;10.266;2023-07-13T05:54:55;19.70;99.90
20594;DHT22;10455;48.732;10.266;2023-07-13T05:59:57;20.10;99.90
20594;DHT22;10455;48.732;10.266;2023-07-13T06:04:59;20.10;99.90
20594;DHT22;10455;48.732;10.266;2023-07-13T06:10:03;21.00;99.90
20594;DHT22;10455;48.732;10.266;2023-07-13T06:15:06;21.40;99.90
20594;DHT22;10455;48.732;10.266;2023-07-13T06:20:08;21.40;99.90
20594;DHT22;10455;48.732;10.266;2023-07-13T06:25:11;21.10;99.90
20594;DHT22;10455;48.732;10.266;2023-07-13T06:30:13;21.20;99.90
20594;DHT22;10455;48.732;10.266;2023-07-13T06:35:15;21.20;99.90
20594;DHT22;10455;48.732;10.266;2023-07-13T06:40:19;21.80;99.90
20594;DHT22;10455;48.732;10.266;2023-07-13T06:45:20;21.80;99.90
20594;DHT22;10455;48.732;10.266;2023-07-13T06:50:24;21.50;99.90
20594;DHT22;10455;48.732;10.266;2023-07-13T06:55:27;24.20;99.90
20594;DHT22;10455;48.732;10.266;2023-07-13T07:00:29;29.70;99.90
20594;DHT22;10455;48.732;10.266;2023-07-13T07:05:31;32.10;93.50
20594;DHT22;10455;48.732;10.266;2023-07-13T07:10:35;32.30;90.80
20594;DHT22;10455;48.732;10.266;2023-07-13T07:15:37;33.20;86.20
20594;DHT22;10455;48.732;10.266;2023-07-13T07:20:39;33.30;83.40
20594;DHT22;10455;48.732;10.266;2023-07-13T07:25:44;35.60;74.10
20594;DHT22;10455;48.732;10.266;2023-07-13T07:30:46;36.30;65.60
20594;DHT22;10455;48.732;10.266;2023-07-13T07:35:49;35.50;66.80
20594;DHT22;10455;48.732;10.266;2023-07-13T07:40:52;34.40;67.30
20594;DHT22;10455;48.732;10.266;2023-07-13T07:45:54;34.10;63.50
20594;DHT22;10455;48.732;10.266;2023-07-13T07:50:56;33.20;63.80
20594;DHT22;10455;48.732;10.266;2023-07-13T07:55:59;30.90;64.60
20594;DHT22;10455;48.732;10.266;2023-07-13T08:01:03;28.90;72.00
20594;DHT22;10455;48.732;10.266;2023-07-13T08:06:05;29.10;73.70
20594;DHT22;10455;48.732;10.266;2023-07-13T08:11:09;30.00;70.00
20594;DHT22;10455;48.732;10.266;2023-07-13T08:16:12;30.30;70.10
20594;DHT22;10455;48.732;10.266;2023-07-13T08:21:14;29.30;69.10
20594;DHT22;10455;48.732;10.266;2023-07-13T08:26:17;29.40;73.90
20594;DHT22;10455;48.732;10.266;2023-07-13T08:31:19;30.20;71.80
20594;DHT22;10455;48.732;10.266;2023-07-13T08:36:21;28.80;72.10
20594;DHT22;10455;48.732;10.266;2023-07-13T08:41:24;30.00;69.20
20594;DHT22;10455;48.732;10.266;2023-07-13T08:46:31;30.00;68.70
20594;DHT22;10455;48.732;10.266;2023-07-13T08:51:40;29.50;66.70
20594;DHT22;10455;48.732;10.266;2023-07-13T08:56:45;28.40;69.80
20594;DHT22;10455;48.732;10.266;2023-07-13T09:02:09;28.50;72.90
20594;DHT22;10455;48.732;10.266;2023-07-13T09:07:21;29.20;74.80
20594;DHT22;10455;48.732;10.266;2023-07-13T09:12:33;33.00;68.40
20594;DHT22;10455;48.732;10.266;2023-07-13T09:17:41;35.40;60.00
20594;DHT22;10455;48.732;10.266;2023-07-13T09:22:49;34.70;57.70
20594;DHT22;10455;48.732;10.266;2023-07-13T09:27:55;35.40;60.00
20594;DHT22;10455;48.732;10.266;2023-07-13T09:32:58;36.00;57.30
20594;DHT22;10455;48.732;10.266;2023-07-13T09:38:10;34.50;58.80
20594;DHT22;10455;48.732;10.266;2023-07-13T09:43:15;31.40;66.50
20594;DHT22;10455;48.732;10.266;2023-07-13T09:48:18;30.10;69.80
20594;DHT22;10455;48.732;10.266;2023-07-13T09:53:20;30.50;67.00
20594;DHT22;10455;48.732;10.266;2023-07-13T09:58:26;29.90;70.90
20594;DHT22;10455;48.732;10.266;2023-07-13T10:03:34;31.90;63.10
20594;DHT22;10455;48.732;10.266;2023-07-13T10:08:38;32.20;67.40
20594;DHT22;10455;48.732;10.266;2023-07-13T10:13:43;32.10;63.50
20594;DHT22;10455;48.732;10.266;2023-07-13T10:18:47;29.90;69.80
20594;DHT22;10455;48.732;10.266;2023-07-13T10:23:52;28.50;73.70
20594;DHT22;10455;48.732;10.266;2023-07-13T10:28:59;30.60;67.60
20594;DHT22;10455;48.732;10.266;2023-07-13T10:34:04;34.20;63.20
20594;DHT22;10455;48.732;10.266;2023-07-13T10:39:06;36.40;59.10
20594;DHT22;10455;48.732;10.266;2023-07-13T10:44:18;34.50;58.40
20594;DHT22;10455;48.732;10.266;2023-07-13T10:49:22;32.80;57.70
20594;DHT22;10455;48.732;10.266;2023-07-13T10:54:28;32.40;57.50
20594;DHT22;10455;48.732;10.266;2023-07-13T10:59:33;31.10;61.80
20594;DHT22;10455;48.732;10.266;2023-07-13T11:04:40;31.70;59.20
20594;DHT22;10455;48.732;10.266;2023-07-13T11:09:42;31.40;60.80
20594;DHT22;10455;48.732;10.266;2023-07-13T11:15:12;31.80;61.70
20594;DHT22;10455;48.732;10.266;2023-07-13T11:20:34;33.80;57.80
20594;DHT22;10455;48.732;10.266;2023-07-13T11:25:37;32.00;60.80
20594;DHT22;10455;48.732;10.266;2023-07-13T11:30:42;31.90;59.90
20594;DHT22;10455;48.732;10.266;2023-07-13T11:35:51;31.70;60.10
20594;DHT22;10455;48.732;10.266;2023-07-13T11:40:54;32.50;57.20
20594;DHT22;10455;48.732;10.266;2023-07-13T11:45:58;32.50;58.80
20594;DHT22;10455;48.732;10.266;2023-07-13T11:51:02;31.80;58.90
20594;DHT22;10455;48.732;10.266;2023-07-13T11:56:05;31.00;59.80
20594;DHT22;10455;48.732;10.266;2023-07-13T12:01:17;30.00;62.40
20594;DHT22;10455;48.732;10.266;2023-07-13T12:06:25;30.30;60.50
20594;DHT22;10455;48.732;10.266;2023-07-13T12:11:30;30.40;61.70
20594;DHT22;10455;48.732;10.266;2023-07-13T12:16:39;31.00;62.60
20594;DHT22;10455;48.732;10.266;2023-07-13T12:21:42;32.10;64.10
20594;DHT22;10455;48.732;10.266;2023-07-13T12:26:51;30.60;62.40
20594;DHT22;10455;48.732;10.266;2023-07-13T12:31:54;32.10;58.30
20594;DHT22;10455;48.732;10.266;2023-07-13T12:37:00;32.50;55.00
20594;DHT22;10455;48.732;10.266;2023-07-13T12:42:19;32.30;57.80
20594;DHT22;10455;48.732;10.266;2023-07-13T12:47:25;31.40;60.20
20594;DHT22;10455;48.732;10.266;2023-07-13T12:52:29;32.20;58.80
20594;DHT22;10455;48.732;10.266;2023-07-13T12:57:38;32.80;57.20
20594;DHT22;10455;48.732;10.266;2023-07-13T13:02:42;32.80;57.40
20594;DHT22;10455;48.732;10.266;2023-07-13T13:07:44;31.50;59.30
20594;DHT22;10455;48.732;10.266;2023-07-13T13:12:47;30.70;59.30
20594;DHT22;10455;48.732;10.266;2023-07-13T13:17:50;31.60;59.50
20594;DHT22;10455;48.732;10.266;2023-07-13T13:22:52;33.10;59.10
20594;DHT22;10455;48.732;10.266;2023-07-13T13:27:55;33.40;57.50
20594;DHT22;10455;48.732;10.266;2023-07-13T13:32:59;33.10;59.60
20594;DHT22;10455;48.732;10.266;2023-07-13T13:38:00;33.80;58.00
20594;DHT22;10455;48.732;10.266;2023-07-13T13:43:04;33.40;58.00
20594;DHT22;10455;48.732;10.266;2023-07-13T13:48:08;33.50;58.80
20594;DHT22;10455;48.732;10.266;2023-07-13T13:53:15;34.40;55.80
20594;DHT22;10455;48.732;10.266;2023-07-13T13:58:17;33.80;55.20
20594;DHT22;10455;48.732;10.266;2023-07-13T14:03:21;34.10;55.20
20594;DHT22;10455;48.732;10.266;2023-07-13T14:08:23;32.50;56.00
20594;DHT22;10455;48.732;10.266;2023-07-13T14:13:28;31.00;59.20
20594;DHT22;10455;48.732;10.266;2023-07-13T14:18:33;30.50;59.20
20594;DHT22;10455;48.732;10.266;2023-07-13T14:23:35;33.60;56.60
20594;DHT22;10455;48.732;10.266;2023-07-13T14:28:40;33.90;55.00
20594;DHT22;10455;48.732;10.266;2023-07-13T14:33:45;32.60;57.70
20594;DHT22;10455;48.732;10.266;2023-07-13T14:38:48;31.80;59.40
20594;DHT22;10455;48.732;10.266;2023-07-13T14:43:50;30.70;59.80
20594;DHT22;10455;48.732;10.266;2023-07-13T14:48:56;30.60;61.40
20594;DHT22;10455;48.732;10.266;2023-07-13T14:54:03;32.80;58.80
20594;DHT22;10455;48.732;10.266;2023-07-13T14:59:05;31.40;59.10
20594;DHT22;10455;48.732;10.266;2023-07-13T15:04:09;29.30;59.90
20594;DHT22;10455;48.732;10.266;2023-07-13T15:09:11;29.10;63.80
20594;DHT22;10455;48.732;10.266;2023-07-13T15:14:13;29.00;61.80
20594;DHT22;10455;48.732;10.266;2023-07-13T15:19:17;30.70;61.30
20594;DHT22;10455;48.732;10.266;2023-07-13T15:24:20;29.60;61.30
20594;DHT22;10455;48.732;10.266;2023-07-13T15:29:22;31.20;59.70
20594;DHT22;10455;48.732;10.266;2023-07-13T15:34:26;32.60;58.50
20594;DHT22;10455;48.732;10.266;2023-07-13T15:39:28;33.10;55.50
20594;DHT22;10455;48.732;10.266;2023-07-13T15:44:32;32.30;56.90
20594;DHT22;10455;48.732;10.266;2023-07-13T15:49:36;32.00;58.30
20594;DHT22;10455;48.732;10.266;2023-07-13T15:54:38;32.00;58.10
20594;DHT22;10455;48.732;10.266;2023-07-13T15:59:40;30.80;59.30
20594;DHT22;10455;48.732;10.266;2023-07-13T16:04:44;31.00;59.50
20594;DHT22;10455;48.732;10.266;2023-07-13T16:09:46;30.90;58.80
20594;DHT22;10455;48.732;10.266;2023-07-13T16:14:49;29.90;60.10
20594;DHT22;10455;48.732;10.266;2023-07-13T16:19:52;30.70;58.40
20594;DHT22;10455;48.732;10.266;2023-07-13T16:24:56;30.90;58.90
20594;DHT22;10455;48.732;10.266;2023-07-13T16:29:59;30.80;57.10
20594;DHT22;10455;48.732;10.266;2023-07-13T16:35:03;31.10;58.20
20594;DHT22;10455;48.732;10.266;2023-07-13T16:40:19;29.50;59.30
20594;DHT22;10455;48.732;10.266;2023-07-13T16:45:24;28.20;62.60
20594;DHT22;10455;48.732;10.266;2023-07-13T16:50:30;27.60;62.70
20594;DHT22;10455;48.732;10.266;2023-07-13T16:55:32;26.80;65.10
20594;DHT22;10455;48.732;10.266;2023-07-13T17:00:34;25.70;66.40
20594;DHT22;10455;48.732;10.266;2023-07-13T17:05:41;25.70;66.80
20594;DHT22;10455;48.732;10.266;2023-07-13T17:10:44;25.50;68.20
20594;DHT22;10455;48.732;10.266;2023-07-13T17:15:48;25.00;68.40
20594;DHT22;10455;48.732;10.266;2023-07-13T17:20:55;24.10;72.80
20594;DHT22;10455;48.732;10.266;2023-07-13T17:25:57;24.00;71.80
20594;DHT22;10455;48.732;10.266;2023-07-13T17:31:00;23.90;72.70
20594;DHT22;10455;48.732;10.266;2023-07-13T17:36:05;23.70;73.50
20594;DHT22;10455;48.732;10.266;2023-07-13T17:41:08;23.70;74.90
20594;DHT22;10455;48.732;10.266;2023-07-13T17:46:13;23.70;74.60
20594;DHT22;10455;48.732;10.266;2023-07-13T17:51:18;23.50;76.00
20594;DHT22;10455;48.732;10.266;2023-07-13T17:56:21;23.40;75.70
20594;DHT22;10455;48.732;10.266;2023-07-13T18:01:31;23.20;77.00
20594;DHT22;10455;48.732;10.266;2023-07-13T18:06:37;23.00;77.60
20594;DHT22;10455;48.732;10.266;2023-07-13T18:11:40;22.90;79.80
20594;DHT22;10455;48.732;10.266;2023-07-13T18:16:47;22.70;80.00
20594;DHT22;10455;48.732;10.266;2023-07-13T18:21:52;22.30;81.80
20594;DHT22;10455;48.732;10.266;2023-07-13T18:26:54;22.10;81.80
20594;DHT22;10455;48.732;10.266;2023-07-13T18:31:56;21.90;82.10
20594;DHT22;10455;48.732;10.266;2023-07-13T18:37:00;21.70;82.50
20594;DHT22;10455;48.732;10.266;2023-07-13T18:42:07;21.40;86.60
20594;DHT22;10455;48.732;10.266;2023-07-13T18:47:15;21.00;91.30
20594;DHT22;10455;48.732;10.266;2023-07-13T18:52:20;20.50;91.00
20594;DHT22;10455;48.732;10.266;2023-07-13T18:57:22;20.10;94.30
20594;DHT22;10455;48.732;10.266;2023-07-13T19:02:24;19.70;95.00
20594;DHT22;10455;48.732;10.266;2023-07-13T19:07:27;19.40;98.10
20594;DHT22;10455;48.732;10.266;2023-07-13T19:12:30;19.10;99.20
20594;DHT22;10455;48.732;10.266;2023-07-13T19:17:33;18.80;99.90
20594;DHT22;10455;48.732;10.266;2023-07-13T19:22:36;18.40;99.90
20594;DHT22;10455;48.732;10.266;2023-07-13T19:27:39;17.90;99.90
20594;DHT22;10455;48.732;10.266;2023-07-13T19:32:41;17.70;99.90
20594;DHT22;10455;48.732;10.266;2023-07-13T19:37:45;17.40;99.90
20594;DHT22;10455;48.732;10.266;2023-07-13T19:42:47;17.10;99.90
20594;DHT22;10455;48.732;10.266;2023-07-13T19:47:50;16.70;99.90
20594;DHT22;10455;48.732;10.266;2023-07-13T19:52:54;16.60;99.90
20594;DHT22;10455;48.732;10.266;2023-07-13T19:57:57;16.50;99.90
20594;DHT22;10455;48.732;10.266;2023-07-13T20:02:59;16.40;99.90
20594;DHT22;10455;48.732;10.266;2023-07-13T20:08:10;16.40;99.90
20594;DHT22;10455;48.732;10.266;2023-07-13T20:13:14;16.40;99.90
20594;DHT22;10455;48.732;10.266;2023-07-13T20:18:17;16.20;99.90
20594;DHT22;10455;48.732;10.266;2023-07-13T20:23:21;16.00;99.90
20594;DHT22;10455;48.732;10.266;2023-07-13T20:28:26;15.70;99.90
20594;DHT22;10455;48.732;10.266;2023-07-13T20:33:30;15.60;99.90
20594;DHT22;10455;48.732;10.266;2023-07-13T20:38:35;15.70;99.90
20594;DHT22;10455;48.732;10.266;2023-07-13T20:43:37;15.90;99.90
20594;DHT22;10455;48.732;10.266;2023-07-13T20:48:40;16.00;99.90
20594;DHT22;10455;48.732;10.266;2023-07-13T20:53:50;16.00;99.90
20594;DHT22;10455;48.732;10.266;2023-07-13T20:58:53;15.90;99.90
20594;DHT22;10455;48.732;10.266;2023-07-13T21:03:57;15.70;99.90
20594;DHT22;10455;48.732;10.266;2023-07-13T21:09:01;15.30;99.90
20594;DHT22;10455;48.732;10.266;2023-07-13T21:14:03;15.00;99.90
20594;DHT22;10455;48.732;10.266;2023-07-13T21:19:11;14.70;99.90
20594;DHT22;10455;48.732;10.266;2023-07-13T21:24:19;14.60;99.90
20594;DHT22;10455;48.732;10.266;2023-07-13T21:29:21;14.60;99.90
20594;DHT22;10455;48.732;10.266;2023-07-13T21:34:22;14.80;99.90
20594;DHT22;10455;48.732;10.266;2023-07-13T21:39:26;14.90;99.90
20594;DHT22;10455;48.732;10.266;2023-07-13T21:44:30;15.40;99.90
20594;DHT22;10455;48.732;10.266;2023-07-13T21:49:32;15.80;99.90
20594;DHT22;10455;48.732;10.266;2023-07-13T21:54:35;16.00;99.90
20594;DHT22;10455;48.732;10.266;2023-07-13T21:59:37;16.20;99.90
20594;DHT22;10455;48.732;10.266;2023-07-13T22:04:38;16.30;99.90
20594;DHT22;10455;48.732;10.266;2023-07-13T22:09:42;16.30;99.90
20594;DHT22;10455;48.732;10.266;2023-07-13T22:14:43;16.30;99.90
20594;DHT22;10455;48.732;10.266;2023-07-13T22:19:45;16.20;99.90
20594;DHT22;10455;48.732;10.266;2023-07-13T22:24:53;15.80;99.90
20594;DHT22;10455;48.732;10.266;2023-07-13T22:29:55;15.70;99.90
20594;DHT22;10455;48.732;10.266;2023-07-13T22:34:57;15.90;99.90
20594;DHT22;10455;48.732;10.266;2023-07-13T22:40:00;15.90;99.90
20594;DHT22;10455;48.732;10.266;2023-07-13T22:45:08;16.00;99.90
20594;DHT22;10455;48.732;10.266;2023-07-13T22:50:15;16.00;99.90
20594;DHT22;10455;48.732;10.266;2023-07-13T22:55:19;15.80;99.90
20594;DHT22;10455;48.732;10.266;2023-07-13T23:00:21;15.80;99.90
20594;DHT22;10455;48.732;10.266;2023-07-13T23:05:23;15.80;99.90
20594;DHT22;10455;48.732;10.266;2023-07-13T23:10:27;15.50;99.90
20594;DHT22;10455;48.732;10.266;2023-07-13T23:15:30;15.40;99.90
20594;DHT22;10455;48.732;10.266;2023-07-13T23:20:33;15.10;99.90
20594;DHT22;10455;48.732;10.266;2023-07-13T23:25:37;15.00;99.90
20594;DHT22;10455;48.732;10.266;2023-07-13T23:30:45;14.80;99.90
20594;DHT22;10455;48.732;10.266;2023-07-13T23:35:48;14.60;99.90
20594;DHT22;10455;48.732;10.266;2023-07-13T23:40:52;14.60;99.90
20594;DHT22;10455;48.732;10.266;2023-07-13T23:45:54;14.30;99.90
20594;DHT22;10455;48.732;10.266;2023-07-13T23:50:56;14.20;99.90
20594;DHT22;10455;48.732;10.266;2023-07-13T23:55:59;14.20;99.90
